sensor_id;sensor_type;location;lat;lon;timestamp;P1;durP1;ratioP1;P2;durP2;ratioP2
71753;SDS011;59593;51.716;7.016;2024-03-29T00:02:05;4.90;;;1.53;;
71753;SDS011;59593;51.716;7.016;2024-03-29T00:04:31;4.50;;;1.77;;
71753;SDS011;59593;51.716;7.016;2024-03-29T00:06:56;4.17;;;1.47;;
71753;SDS011;59593;51.716;7.016;2024-03-29T00:09:22;4.53;;;1.50;;
71753;SDS011;59593;51.716;7.016;2024-03-29T00:11:48;5.87;;;1.83;;
71753;SDS011;59593;51.716;7.016;2024-03-29T00:14:14;2.57;;;1.57;;
71753;SDS011;59593;51.716;7.016;2024-03-29T00:16:39;5.10;;;1.70;;
71753;SDS011;59593;51.716;7.016;2024-03-29T00:19:05;5.23;;;1.33;;
71753;SDS011;59593;51.716;7.016;2024-03-29T00:21:31;5.60;;;1.50;;
71753;SDS011;59593;51.716;7.016;2024-03-29T00:23:56;4.57;;;1.20;;
71753;SDS011;59593;51.716;7.016;2024-03-29T00:26:22;4.77;;;1.13;;
71753;SDS011;59593;51.716;7.016;2024-03-29T00:28:48;5.43;;;2.03;;
71753;SDS011;59593;51.716;7.016;2024-03-29T00:31:14;6.33;;;2.20;;
71753;SDS011;59593;51.716;7.016;2024-03-29T00:33:40;10.07;;;3.30;;
71753;SDS011;59593;51.716;7.016;2024-03-29T00:36:05;6.17;;;2.30;;
71753;SDS011;59593;51.716;7.016;2024-03-29T00:38:31;8.93;;;3.20;;
71753;SDS011;59593;51.716;7.016;2024-03-29T00:40:57;5.63;;;1.80;;
71753;SDS011;59593;51.716;7.016;2024-03-29T00:43:22;4.57;;;1.67;;
71753;SDS011;59593;51.716;7.016;2024-03-29T00:45:48;3.53;;;1.70;;
71753;SDS011;59593;51.716;7.016;2024-03-29T00:48:13;8.07;;;1.57;;
71753;SDS011;59593;51.716;7.016;2024-03-29T00:50:40;6.53;;;2.17;;
71753;SDS011;59593;51.716;7.016;2024-03-29T00:53:06;4.30;;;1.50;;
71753;SDS011;59593;51.716;7.016;2024-03-29T00:55:32;3.80;;;1.33;;
71753;SDS011;59593;51.716;7.016;2024-03-29T00:57:57;4.30;;;1.23;;
71753;SDS011;59593;51.716;7.016;2024-03-29T01:00:23;2.23;;;1.23;;
71753;SDS011;59593;51.716;7.016;2024-03-29T01:02:48;5.57;;;1.20;;
71753;SDS011;59593;51.716;7.016;2024-03-29T01:05:14;3.77;;;1.17;;
71753;SDS011;59593;51.716;7.016;2024-03-29T01:07:40;3.27;;;1.20;;
71753;SDS011;59593;51.716;7.016;2024-03-29T01:10:06;4.63;;;1.20;;
71753;SDS011;59593;51.716;7.016;2024-03-29T01:12:34;3.67;;;1.30;;
71753;SDS011;59593;51.716;7.016;2024-03-29T01:15:04;5.03;;;1.40;;
71753;SDS011;59593;51.716;7.016;2024-03-29T01:17:30;2.90;;;1.40;;
71753;SDS011;59593;51.716;7.016;2024-03-29T01:19:55;2.40;;;1.13;;
71753;SDS011;59593;51.716;7.016;2024-03-29T01:22:21;3.87;;;1.60;;
71753;SDS011;59593;51.716;7.016;2024-03-29T01:24:47;4.30;;;1.20;;
71753;SDS011;59593;51.716;7.016;2024-03-29T01:27:12;2.30;;;1.23;;
71753;SDS011;59593;51.716;7.016;2024-03-29T01:29:38;3.33;;;1.30;;
71753;SDS011;59593;51.716;7.016;2024-03-29T01:32:03;3.40;;;1.30;;
71753;SDS011;59593;51.716;7.016;2024-03-29T01:34:30;3.53;;;1.20;;
71753;SDS011;59593;51.716;7.016;2024-03-29T01:36:55;4.67;;;1.37;;
71753;SDS011;59593;51.716;7.016;2024-03-29T01:39:21;6.30;;;1.43;;
71753;SDS011;59593;51.716;7.016;2024-03-29T01:41:51;3.60;;;1.10;;
71753;SDS011;59593;51.716;7.016;2024-03-29T01:44:17;5.87;;;1.10;;
71753;SDS011;59593;51.716;7.016;2024-03-29T01:46:43;3.07;;;1.20;;
71753;SDS011;59593;51.716;7.016;2024-03-29T01:49:10;2.40;;;1.10;;
71753;SDS011;59593;51.716;7.016;2024-03-29T01:51:36;5.03;;;1.20;;
71753;SDS011;59593;51.716;7.016;2024-03-29T01:54:09;4.27;;;1.10;;
71753;SDS011;59593;51.716;7.016;2024-03-29T01:56:36;2.80;;;1.10;;
71753;SDS011;59593;51.716;7.016;2024-03-29T01:59:03;2.83;;;1.10;;
71753;SDS011;59593;51.716;7.016;2024-03-29T02:01:30;2.83;;;1.07;;
71753;SDS011;59593;51.716;7.016;2024-03-29T02:03:56;4.50;;;1.10;;
71753;SDS011;59593;51.716;7.016;2024-03-29T02:06:22;7.70;;;1.40;;
71753;SDS011;59593;51.716;7.016;2024-03-29T02:08:51;3.17;;;1.10;;
71753;SDS011;59593;51.716;7.016;2024-03-29T02:11:18;4.20;;;1.00;;
71753;SDS011;59593;51.716;7.016;2024-03-29T02:13:44;2.77;;;1.07;;
71753;SDS011;59593;51.716;7.016;2024-03-29T02:16:11;3.07;;;1.10;;
71753;SDS011;59593;51.716;7.016;2024-03-29T02:18:36;3.80;;;1.00;;
71753;SDS011;59593;51.716;7.016;2024-03-29T02:21:02;3.10;;;0.87;;
71753;SDS011;59593;51.716;7.016;2024-03-29T02:23:29;4.37;;;1.10;;
71753;SDS011;59593;51.716;7.016;2024-03-29T02:25:57;4.17;;;1.10;;
71753;SDS011;59593;51.716;7.016;2024-03-29T02:28:23;4.00;;;0.93;;
71753;SDS011;59593;51.716;7.016;2024-03-29T02:30:49;2.47;;;1.00;;
71753;SDS011;59593;51.716;7.016;2024-03-29T02:33:15;3.33;;;1.00;;
71753;SDS011;59593;51.716;7.016;2024-03-29T02:35:41;2.10;;;0.73;;
71753;SDS011;59593;51.716;7.016;2024-03-29T02:38:06;4.43;;;1.10;;
71753;SDS011;59593;51.716;7.016;2024-03-29T02:40:35;3.93;;;1.10;;
71753;SDS011;59593;51.716;7.016;2024-03-29T02:43:00;5.13;;;0.90;;
71753;SDS011;59593;51.716;7.016;2024-03-29T02:45:26;5.27;;;1.10;;
71753;SDS011;59593;51.716;7.016;2024-03-29T02:47:51;2.10;;;0.93;;
71753;SDS011;59593;51.716;7.016;2024-03-29T02:50:17;3.07;;;1.13;;
71753;SDS011;59593;51.716;7.016;2024-03-29T02:52:43;1.40;;;0.90;;
71753;SDS011;59593;51.716;7.016;2024-03-29T02:55:08;2.53;;;0.97;;
71753;SDS011;59593;51.716;7.016;2024-03-29T02:57:37;1.90;;;0.90;;
71753;SDS011;59593;51.716;7.016;2024-03-29T03:00:04;2.83;;;0.87;;
71753;SDS011;59593;51.716;7.016;2024-03-29T03:02:30;3.90;;;1.17;;
71753;SDS011;59593;51.716;7.016;2024-03-29T03:04:56;5.33;;;1.03;;
71753;SDS011;59593;51.716;7.016;2024-03-29T03:07:22;2.30;;;0.80;;
71753;SDS011;59593;51.716;7.016;2024-03-29T03:10:06;2.90;;;0.80;;
71753;SDS011;59593;51.716;7.016;2024-03-29T03:12:50;4.53;;;1.40;;
71753;SDS011;59593;51.716;7.016;2024-03-29T03:15:15;2.17;;;0.83;;
71753;SDS011;59593;51.716;7.016;2024-03-29T03:17:41;3.97;;;1.20;;
71753;SDS011;59593;51.716;7.016;2024-03-29T03:20:07;3.03;;;1.10;;
71753;SDS011;59593;51.716;7.016;2024-03-29T03:22:34;3.30;;;1.07;;
71753;SDS011;59593;51.716;7.016;2024-03-29T03:24:59;2.60;;;1.00;;
71753;SDS011;59593;51.716;7.016;2024-03-29T03:27:25;2.97;;;0.90;;
71753;SDS011;59593;51.716;7.016;2024-03-29T03:29:51;3.47;;;1.10;;
71753;SDS011;59593;51.716;7.016;2024-03-29T03:32:16;2.60;;;1.27;;
71753;SDS011;59593;51.716;7.016;2024-03-29T03:34:42;3.80;;;1.20;;
71753;SDS011;59593;51.716;7.016;2024-03-29T03:37:07;3.07;;;0.80;;
71753;SDS011;59593;51.716;7.016;2024-03-29T03:39:33;4.83;;;1.00;;
71753;SDS011;59593;51.716;7.016;2024-03-29T03:41:58;3.57;;;0.87;;
71753;SDS011;59593;51.716;7.016;2024-03-29T03:44:24;1.57;;;0.80;;
71753;SDS011;59593;51.716;7.016;2024-03-29T03:46:50;2.47;;;0.97;;
71753;SDS011;59593;51.716;7.016;2024-03-29T03:49:16;4.00;;;1.20;;
71753;SDS011;59593;51.716;7.016;2024-03-29T03:51:42;2.13;;;0.83;;
71753;SDS011;59593;51.716;7.016;2024-03-29T03:54:08;3.23;;;1.00;;
71753;SDS011;59593;51.716;7.016;2024-03-29T03:56:33;3.27;;;0.83;;
71753;SDS011;59593;51.716;7.016;2024-03-29T03:58:59;3.50;;;0.73;;
71753;SDS011;59593;51.716;7.016;2024-03-29T04:01:24;4.37;;;0.90;;
71753;SDS011;59593;51.716;7.016;2024-03-29T04:03:50;2.37;;;0.80;;
71753;SDS011;59593;51.716;7.016;2024-03-29T04:06:15;2.63;;;0.93;;
71753;SDS011;59593;51.716;7.016;2024-03-29T04:08:43;2.73;;;0.90;;
71753;SDS011;59593;51.716;7.016;2024-03-29T04:11:09;3.93;;;0.97;;
71753;SDS011;59593;51.716;7.016;2024-03-29T04:13:35;2.80;;;0.80;;
71753;SDS011;59593;51.716;7.016;2024-03-29T04:16:07;2.23;;;0.93;;
71753;SDS011;59593;51.716;7.016;2024-03-29T04:18:33;1.50;;;0.93;;
71753;SDS011;59593;51.716;7.016;2024-03-29T04:21:02;1.47;;;0.70;;
71753;SDS011;59593;51.716;7.016;2024-03-29T04:23:29;2.30;;;0.67;;
71753;SDS011;59593;51.716;7.016;2024-03-29T04:25:55;3.50;;;0.80;;
71753;SDS011;59593;51.716;7.016;2024-03-29T04:28:22;3.83;;;1.10;;
71753;SDS011;59593;51.716;7.016;2024-03-29T04:30:54;1.77;;;0.90;;
71753;SDS011;59593;51.716;7.016;2024-03-29T04:33:21;1.93;;;0.73;;
71753;SDS011;59593;51.716;7.016;2024-03-29T04:35:54;1.93;;;0.80;;
71753;SDS011;59593;51.716;7.016;2024-03-29T04:38:21;3.73;;;1.30;;
71753;SDS011;59593;51.716;7.016;2024-03-29T04:40:51;2.77;;;1.00;;
71753;SDS011;59593;51.716;7.016;2024-03-29T04:43:18;3.77;;;1.23;;
71753;SDS011;59593;51.716;7.016;2024-03-29T04:45:44;2.93;;;1.00;;
71753;SDS011;59593;51.716;7.016;2024-03-29T04:48:10;2.83;;;1.10;;
71753;SDS011;59593;51.716;7.016;2024-03-29T04:50:36;2.50;;;1.20;;
71753;SDS011;59593;51.716;7.016;2024-03-29T04:53:02;3.93;;;1.17;;
71753;SDS011;59593;51.716;7.016;2024-03-29T04:55:27;5.13;;;1.40;;
71753;SDS011;59593;51.716;7.016;2024-03-29T04:57:53;3.70;;;1.13;;
71753;SDS011;59593;51.716;7.016;2024-03-29T05:00:18;2.60;;;0.93;;
71753;SDS011;59593;51.716;7.016;2024-03-29T05:02:44;3.13;;;1.30;;
71753;SDS011;59593;51.716;7.016;2024-03-29T05:05:09;3.63;;;0.97;;
71753;SDS011;59593;51.716;7.016;2024-03-29T05:07:35;2.17;;;1.07;;
71753;SDS011;59593;51.716;7.016;2024-03-29T05:10:01;3.90;;;1.10;;
71753;SDS011;59593;51.716;7.016;2024-03-29T05:12:31;2.43;;;1.03;;
71753;SDS011;59593;51.716;7.016;2024-03-29T05:14:57;3.20;;;1.07;;
71753;SDS011;59593;51.716;7.016;2024-03-29T05:17:22;3.30;;;0.90;;
71753;SDS011;59593;51.716;7.016;2024-03-29T05:19:51;3.17;;;1.10;;
71753;SDS011;59593;51.716;7.016;2024-03-29T05:22:17;2.87;;;0.90;;
71753;SDS011;59593;51.716;7.016;2024-03-29T05:24:43;4.17;;;1.20;;
71753;SDS011;59593;51.716;7.016;2024-03-29T05:27:09;4.27;;;1.07;;
71753;SDS011;59593;51.716;7.016;2024-03-29T05:29:34;3.60;;;1.07;;
71753;SDS011;59593;51.716;7.016;2024-03-29T05:32:00;3.63;;;1.10;;
71753;SDS011;59593;51.716;7.016;2024-03-29T05:34:25;4.13;;;1.17;;
71753;SDS011;59593;51.716;7.016;2024-03-29T05:36:51;2.93;;;1.10;;
71753;SDS011;59593;51.716;7.016;2024-03-29T05:39:17;2.50;;;1.20;;
71753;SDS011;59593;51.716;7.016;2024-03-29T05:41:44;2.97;;;1.00;;
71753;SDS011;59593;51.716;7.016;2024-03-29T05:44:09;5.53;;;1.30;;
71753;SDS011;59593;51.716;7.016;2024-03-29T05:46:35;5.00;;;1.10;;
71753;SDS011;59593;51.716;7.016;2024-03-29T05:49:01;3.20;;;1.40;;
71753;SDS011;59593;51.716;7.016;2024-03-29T05:51:26;3.90;;;1.23;;
71753;SDS011;59593;51.716;7.016;2024-03-29T05:53:52;4.03;;;1.33;;
71753;SDS011;59593;51.716;7.016;2024-03-29T05:56:17;4.33;;;1.20;;
71753;SDS011;59593;51.716;7.016;2024-03-29T05:58:43;2.87;;;1.20;;
71753;SDS011;59593;51.716;7.016;2024-03-29T06:01:10;3.50;;;1.20;;
71753;SDS011;59593;51.716;7.016;2024-03-29T06:03:35;2.83;;;1.40;;
71753;SDS011;59593;51.716;7.016;2024-03-29T06:06:01;4.57;;;1.30;;
71753;SDS011;59593;51.716;7.016;2024-03-29T06:08:27;3.73;;;1.20;;
71753;SDS011;59593;51.716;7.016;2024-03-29T06:10:52;4.70;;;1.20;;
71753;SDS011;59593;51.716;7.016;2024-03-29T06:13:18;4.90;;;1.33;;
71753;SDS011;59593;51.716;7.016;2024-03-29T06:16:03;4.00;;;1.30;;
71753;SDS011;59593;51.716;7.016;2024-03-29T06:18:47;2.43;;;1.00;;
71753;SDS011;59593;51.716;7.016;2024-03-29T06:21:12;3.23;;;1.10;;
71753;SDS011;59593;51.716;7.016;2024-03-29T06:23:38;4.67;;;1.40;;
71753;SDS011;59593;51.716;7.016;2024-03-29T06:26:03;3.97;;;1.40;;
71753;SDS011;59593;51.716;7.016;2024-03-29T06:28:29;3.43;;;1.20;;
71753;SDS011;59593;51.716;7.016;2024-03-29T06:30:55;5.30;;;1.40;;
71753;SDS011;59593;51.716;7.016;2024-03-29T06:33:20;2.40;;;1.00;;
71753;SDS011;59593;51.716;7.016;2024-03-29T06:35:52;2.37;;;1.17;;
71753;SDS011;59593;51.716;7.016;2024-03-29T06:38:19;1.77;;;1.13;;
71753;SDS011;59593;51.716;7.016;2024-03-29T06:40:45;3.20;;;1.17;;
71753;SDS011;59593;51.716;7.016;2024-03-29T06:43:11;6.57;;;1.70;;
71753;SDS011;59593;51.716;7.016;2024-03-29T06:45:39;6.70;;;1.70;;
71753;SDS011;59593;51.716;7.016;2024-03-29T06:48:07;2.77;;;1.50;;
71753;SDS011;59593;51.716;7.016;2024-03-29T06:50:33;3.90;;;1.70;;
71753;SDS011;59593;51.716;7.016;2024-03-29T06:52:59;3.33;;;1.90;;
71753;SDS011;59593;51.716;7.016;2024-03-29T06:55:25;3.70;;;1.83;;
71753;SDS011;59593;51.716;7.016;2024-03-29T06:57:51;4.93;;;1.80;;
71753;SDS011;59593;51.716;7.016;2024-03-29T07:00:16;3.43;;;1.80;;
71753;SDS011;59593;51.716;7.016;2024-03-29T07:02:42;3.23;;;1.50;;
71753;SDS011;59593;51.716;7.016;2024-03-29T07:05:09;4.33;;;1.50;;
71753;SDS011;59593;51.716;7.016;2024-03-29T07:07:36;3.40;;;1.70;;
71753;SDS011;59593;51.716;7.016;2024-03-29T07:10:02;3.10;;;1.30;;
71753;SDS011;59593;51.716;7.016;2024-03-29T07:12:28;2.47;;;1.20;;
71753;SDS011;59593;51.716;7.016;2024-03-29T07:14:54;3.30;;;1.57;;
71753;SDS011;59593;51.716;7.016;2024-03-29T07:17:19;4.47;;;1.60;;
71753;SDS011;59593;51.716;7.016;2024-03-29T07:19:45;3.27;;;1.47;;
71753;SDS011;59593;51.716;7.016;2024-03-29T07:22:10;5.17;;;1.60;;
71753;SDS011;59593;51.716;7.016;2024-03-29T07:24:36;4.37;;;1.63;;
71753;SDS011;59593;51.716;7.016;2024-03-29T07:27:01;2.93;;;1.50;;
71753;SDS011;59593;51.716;7.016;2024-03-29T07:29:27;3.37;;;1.87;;
71753;SDS011;59593;51.716;7.016;2024-03-29T07:31:53;3.93;;;1.70;;
71753;SDS011;59593;51.716;7.016;2024-03-29T07:34:19;3.10;;;1.40;;
71753;SDS011;59593;51.716;7.016;2024-03-29T07:36:45;2.93;;;1.60;;
71753;SDS011;59593;51.716;7.016;2024-03-29T07:39:10;5.30;;;1.70;;
71753;SDS011;59593;51.716;7.016;2024-03-29T07:41:36;4.47;;;2.00;;
71753;SDS011;59593;51.716;7.016;2024-03-29T07:44:02;4.90;;;1.50;;
71753;SDS011;59593;51.716;7.016;2024-03-29T07:46:29;4.60;;;1.70;;
71753;SDS011;59593;51.716;7.016;2024-03-29T07:48:57;4.80;;;1.37;;
71753;SDS011;59593;51.716;7.016;2024-03-29T07:51:23;4.07;;;1.40;;
71753;SDS011;59593;51.716;7.016;2024-03-29T07:53:49;3.10;;;1.40;;
71753;SDS011;59593;51.716;7.016;2024-03-29T07:56:15;2.73;;;1.40;;
71753;SDS011;59593;51.716;7.016;2024-03-29T07:58:41;2.20;;;1.50;;
71753;SDS011;59593;51.716;7.016;2024-03-29T08:01:07;5.27;;;1.63;;
71753;SDS011;59593;51.716;7.016;2024-03-29T08:03:33;4.50;;;1.80;;
71753;SDS011;59593;51.716;7.016;2024-03-29T08:06:02;3.07;;;1.83;;
71753;SDS011;59593;51.716;7.016;2024-03-29T08:08:32;3.93;;;2.00;;
71753;SDS011;59593;51.716;7.016;2024-03-29T08:10:58;2.53;;;1.80;;
71753;SDS011;59593;51.716;7.016;2024-03-29T08:13:25;3.87;;;1.83;;
71753;SDS011;59593;51.716;7.016;2024-03-29T08:15:57;4.63;;;2.07;;
71753;SDS011;59593;51.716;7.016;2024-03-29T08:18:24;6.27;;;2.90;;
71753;SDS011;59593;51.716;7.016;2024-03-29T08:20:49;3.80;;;2.80;;
71753;SDS011;59593;51.716;7.016;2024-03-29T08:23:15;4.43;;;2.23;;
71753;SDS011;59593;51.716;7.016;2024-03-29T08:25:40;3.20;;;2.20;;
71753;SDS011;59593;51.716;7.016;2024-03-29T08:28:06;5.83;;;2.83;;
71753;SDS011;59593;51.716;7.016;2024-03-29T08:30:32;4.00;;;2.03;;
71753;SDS011;59593;51.716;7.016;2024-03-29T08:33:00;5.83;;;1.90;;
71753;SDS011;59593;51.716;7.016;2024-03-29T08:35:28;4.83;;;2.53;;
71753;SDS011;59593;51.716;7.016;2024-03-29T08:37:54;4.23;;;1.90;;
71753;SDS011;59593;51.716;7.016;2024-03-29T08:40:20;2.67;;;1.90;;
71753;SDS011;59593;51.716;7.016;2024-03-29T08:42:46;3.10;;;1.70;;
71753;SDS011;59593;51.716;7.016;2024-03-29T08:45:12;4.30;;;2.00;;
71753;SDS011;59593;51.716;7.016;2024-03-29T08:47:38;5.27;;;1.70;;
71753;SDS011;59593;51.716;7.016;2024-03-29T08:50:04;2.60;;;1.60;;
71753;SDS011;59593;51.716;7.016;2024-03-29T08:52:30;3.30;;;1.43;;
71753;SDS011;59593;51.716;7.016;2024-03-29T08:54:55;2.93;;;1.70;;
71753;SDS011;59593;51.716;7.016;2024-03-29T08:57:21;3.53;;;1.67;;
71753;SDS011;59593;51.716;7.016;2024-03-29T08:59:47;1.77;;;1.40;;
71753;SDS011;59593;51.716;7.016;2024-03-29T09:02:12;2.70;;;1.50;;
71753;SDS011;59593;51.716;7.016;2024-03-29T09:04:38;3.60;;;1.43;;
71753;SDS011;59593;51.716;7.016;2024-03-29T09:07:03;3.20;;;1.90;;
71753;SDS011;59593;51.716;7.016;2024-03-29T09:09:29;4.13;;;1.63;;
71753;SDS011;59593;51.716;7.016;2024-03-29T09:11:56;4.07;;;1.50;;
71753;SDS011;59593;51.716;7.016;2024-03-29T09:14:22;4.27;;;2.00;;
71753;SDS011;59593;51.716;7.016;2024-03-29T09:16:47;5.83;;;1.70;;
71753;SDS011;59593;51.716;7.016;2024-03-29T09:19:13;3.10;;;1.80;;
71753;SDS011;59593;51.716;7.016;2024-03-29T09:21:39;4.00;;;1.63;;
71753;SDS011;59593;51.716;7.016;2024-03-29T09:24:05;2.90;;;1.70;;
71753;SDS011;59593;51.716;7.016;2024-03-29T09:26:31;2.60;;;1.60;;
71753;SDS011;59593;51.716;7.016;2024-03-29T09:28:57;4.20;;;2.00;;
71753;SDS011;59593;51.716;7.016;2024-03-29T09:31:23;5.23;;;1.87;;
71753;SDS011;59593;51.716;7.016;2024-03-29T09:33:49;4.50;;;1.47;;
71753;SDS011;59593;51.716;7.016;2024-03-29T09:36:20;4.00;;;1.90;;
71753;SDS011;59593;51.716;7.016;2024-03-29T09:38:48;3.07;;;2.13;;
71753;SDS011;59593;51.716;7.016;2024-03-29T09:41:17;3.87;;;2.30;;
71753;SDS011;59593;51.716;7.016;2024-03-29T09:43:45;4.33;;;2.50;;
71753;SDS011;59593;51.716;7.016;2024-03-29T09:46:14;6.83;;;4.10;;
71753;SDS011;59593;51.716;7.016;2024-03-29T09:48:41;20.33;;;9.90;;
71753;SDS011;59593;51.716;7.016;2024-03-29T09:51:12;10.80;;;6.23;;
71753;SDS011;59593;51.716;7.016;2024-03-29T09:53:42;4.27;;;2.67;;
71753;SDS011;59593;51.716;7.016;2024-03-29T09:56:08;4.90;;;2.60;;
71753;SDS011;59593;51.716;7.016;2024-03-29T09:58:35;3.97;;;2.50;;
71753;SDS011;59593;51.716;7.016;2024-03-29T10:01:02;4.70;;;2.40;;
71753;SDS011;59593;51.716;7.016;2024-03-29T10:03:29;3.67;;;2.10;;
71753;SDS011;59593;51.716;7.016;2024-03-29T10:05:59;4.73;;;2.40;;
71753;SDS011;59593;51.716;7.016;2024-03-29T10:08:28;4.27;;;2.43;;
71753;SDS011;59593;51.716;7.016;2024-03-29T10:10:55;6.20;;;2.97;;
71753;SDS011;59593;51.716;7.016;2024-03-29T10:13:21;3.47;;;2.13;;
71753;SDS011;59593;51.716;7.016;2024-03-29T10:15:51;3.67;;;1.93;;
71753;SDS011;59593;51.716;7.016;2024-03-29T10:18:20;5.50;;;2.00;;
71753;SDS011;59593;51.716;7.016;2024-03-29T10:21:02;3.40;;;1.90;;
71753;SDS011;59593;51.716;7.016;2024-03-29T10:23:29;3.73;;;1.87;;
71753;SDS011;59593;51.716;7.016;2024-03-29T10:25:56;4.23;;;2.30;;
71753;SDS011;59593;51.716;7.016;2024-03-29T10:28:22;4.10;;;1.87;;
71753;SDS011;59593;51.716;7.016;2024-03-29T10:30:48;3.00;;;2.20;;
71753;SDS011;59593;51.716;7.016;2024-03-29T10:33:17;3.13;;;2.07;;
71753;SDS011;59593;51.716;7.016;2024-03-29T10:35:43;5.60;;;2.30;;
71753;SDS011;59593;51.716;7.016;2024-03-29T10:38:09;4.63;;;2.20;;
71753;SDS011;59593;51.716;7.016;2024-03-29T10:40:38;3.10;;;2.20;;
71753;SDS011;59593;51.716;7.016;2024-03-29T10:43:10;5.75;;;2.17;;
71753;SDS011;59593;51.716;7.016;2024-03-29T10:45:41;6.97;;;2.67;;
71753;SDS011;59593;51.716;7.016;2024-03-29T10:48:08;2.97;;;1.88;;
71753;SDS011;59593;51.716;7.016;2024-03-29T10:50:36;4.22;;;1.70;;
71753;SDS011;59593;51.716;7.016;2024-03-29T10:53:02;4.28;;;1.95;;
71753;SDS011;59593;51.716;7.016;2024-03-29T10:55:34;3.83;;;1.70;;
71753;SDS011;59593;51.716;7.016;2024-03-29T10:58:03;2.17;;;1.63;;
71753;SDS011;59593;51.716;7.016;2024-03-29T11:00:33;2.83;;;1.80;;
71753;SDS011;59593;51.716;7.016;2024-03-29T11:05:41;2.83;;;2.10;;
71753;SDS011;59593;51.716;7.016;2024-03-29T11:08:14;3.25;;;2.10;;
71753;SDS011;59593;51.716;7.016;2024-03-29T11:10:45;2.33;;;1.90;;
71753;SDS011;59593;51.716;7.016;2024-03-29T11:13:31;3.75;;;2.20;;
71753;SDS011;59593;51.716;7.016;2024-03-29T11:16:18;3.72;;;2.13;;
71753;SDS011;59593;51.716;7.016;2024-03-29T11:18:45;3.38;;;2.22;;
71753;SDS011;59593;51.716;7.016;2024-03-29T11:21:12;6.43;;;2.35;;
71753;SDS011;59593;51.716;7.016;2024-03-29T11:23:39;3.47;;;2.03;;
71753;SDS011;59593;51.716;7.016;2024-03-29T11:26:05;4.95;;;2.33;;
71753;SDS011;59593;51.716;7.016;2024-03-29T11:28:32;4.10;;;2.30;;
71753;SDS011;59593;51.716;7.016;2024-03-29T11:31:03;3.88;;;2.13;;
71753;SDS011;59593;51.716;7.016;2024-03-29T11:33:35;4.15;;;2.35;;
71753;SDS011;59593;51.716;7.016;2024-03-29T11:36:17;4.95;;;2.40;;
71753;SDS011;59593;51.716;7.016;2024-03-29T11:38:47;5.55;;;2.53;;
71753;SDS011;59593;51.716;7.016;2024-03-29T11:41:15;3.70;;;2.63;;
71753;SDS011;59593;51.716;7.016;2024-03-29T11:43:42;4.90;;;2.55;;
71753;SDS011;59593;51.716;7.016;2024-03-29T11:46:09;5.78;;;2.83;;
71753;SDS011;59593;51.716;7.016;2024-03-29T11:48:36;4.07;;;2.65;;
71753;SDS011;59593;51.716;7.016;2024-03-29T11:51:04;6.43;;;2.70;;
71753;SDS011;59593;51.716;7.016;2024-03-29T11:53:31;3.35;;;2.60;;
71753;SDS011;59593;51.716;7.016;2024-03-29T11:55:57;4.10;;;2.55;;
71753;SDS011;59593;51.716;7.016;2024-03-29T11:58:24;6.18;;;2.30;;
71753;SDS011;59593;51.716;7.016;2024-03-29T12:00:51;3.95;;;2.13;;
71753;SDS011;59593;51.716;7.016;2024-03-29T12:03:18;4.43;;;2.40;;
71753;SDS011;59593;51.716;7.016;2024-03-29T12:05:46;6.60;;;2.50;;
71753;SDS011;59593;51.716;7.016;2024-03-29T12:08:13;4.85;;;2.45;;
71753;SDS011;59593;51.716;7.016;2024-03-29T12:10:42;5.00;;;2.60;;
71753;SDS011;59593;51.716;7.016;2024-03-29T12:13:15;4.70;;;2.50;;
71753;SDS011;59593;51.716;7.016;2024-03-29T12:15:42;3.72;;;2.63;;
71753;SDS011;59593;51.716;7.016;2024-03-29T12:18:08;5.28;;;2.53;;
71753;SDS011;59593;51.716;7.016;2024-03-29T12:20:37;5.43;;;3.00;;
71753;SDS011;59593;51.716;7.016;2024-03-29T12:23:06;5.93;;;3.17;;
71753;SDS011;59593;51.716;7.016;2024-03-29T12:25:35;5.25;;;3.13;;
71753;SDS011;59593;51.716;7.016;2024-03-29T12:28:02;7.00;;;2.92;;
71753;SDS011;59593;51.716;7.016;2024-03-29T12:30:28;5.15;;;2.78;;
71753;SDS011;59593;51.716;7.016;2024-03-29T12:33:01;5.90;;;2.85;;
71753;SDS011;59593;51.716;7.016;2024-03-29T12:35:31;5.38;;;3.20;;
71753;SDS011;59593;51.716;7.016;2024-03-29T12:37:58;4.30;;;3.10;;
71753;SDS011;59593;51.716;7.016;2024-03-29T12:40:26;7.72;;;4.78;;
71753;SDS011;59593;51.716;7.016;2024-03-29T12:42:54;2.60;;;2.17;;
71753;SDS011;59593;51.716;7.016;2024-03-29T12:45:21;2.90;;;1.75;;
71753;SDS011;59593;51.716;7.016;2024-03-29T12:47:47;3.70;;;1.52;;
71753;SDS011;59593;51.716;7.016;2024-03-29T12:50:30;2.55;;;1.60;;
71753;SDS011;59593;51.716;7.016;2024-03-29T12:52:58;3.92;;;2.22;;
71753;SDS011;59593;51.716;7.016;2024-03-29T12:55:25;3.63;;;1.75;;
71753;SDS011;59593;51.716;7.016;2024-03-29T12:57:56;6.07;;;3.40;;
71753;SDS011;59593;51.716;7.016;2024-03-29T13:00:22;5.05;;;2.60;;
71753;SDS011;59593;51.716;7.016;2024-03-29T13:02:48;2.40;;;1.65;;
71753;SDS011;59593;51.716;7.016;2024-03-29T13:05:14;2.13;;;1.38;;
71753;SDS011;59593;51.716;7.016;2024-03-29T13:07:40;5.28;;;2.95;;
71753;SDS011;59593;51.716;7.016;2024-03-29T13:10:06;3.83;;;2.33;;
71753;SDS011;59593;51.716;7.016;2024-03-29T13:12:42;3.00;;;1.50;;
71753;SDS011;59593;51.716;7.016;2024-03-29T13:15:15;2.67;;;1.80;;
71753;SDS011;59593;51.716;7.016;2024-03-29T13:17:44;3.63;;;1.92;;
71753;SDS011;59593;51.716;7.016;2024-03-29T13:20:12;2.90;;;1.40;;
71753;SDS011;59593;51.716;7.016;2024-03-29T13:22:40;3.65;;;2.40;;
71753;SDS011;59593;51.716;7.016;2024-03-29T13:25:08;3.63;;;1.63;;
71753;SDS011;59593;51.716;7.016;2024-03-29T13:27:37;2.55;;;1.42;;
71753;SDS011;59593;51.716;7.016;2024-03-29T13:30:04;5.00;;;2.20;;
71753;SDS011;59593;51.716;7.016;2024-03-29T13:32:30;2.83;;;1.75;;
71753;SDS011;59593;51.716;7.016;2024-03-29T13:34:57;2.42;;;1.60;;
71753;SDS011;59593;51.716;7.016;2024-03-29T13:37:24;5.05;;;1.90;;
71753;SDS011;59593;51.716;7.016;2024-03-29T13:39:52;2.35;;;1.58;;
71753;SDS011;59593;51.716;7.016;2024-03-29T13:42:18;2.28;;;1.60;;
71753;SDS011;59593;51.716;7.016;2024-03-29T13:44:44;3.42;;;1.40;;
71753;SDS011;59593;51.716;7.016;2024-03-29T13:47:10;2.75;;;1.42;;
71753;SDS011;59593;51.716;7.016;2024-03-29T13:49:41;2.28;;;1.38;;
71753;SDS011;59593;51.716;7.016;2024-03-29T13:52:07;3.45;;;1.40;;
71753;SDS011;59593;51.716;7.016;2024-03-29T13:54:33;2.63;;;1.35;;
71753;SDS011;59593;51.716;7.016;2024-03-29T13:56:59;3.83;;;1.23;;
71753;SDS011;59593;51.716;7.016;2024-03-29T13:59:25;2.85;;;1.48;;
71753;SDS011;59593;51.716;7.016;2024-03-29T14:01:52;2.95;;;1.45;;
71753;SDS011;59593;51.716;7.016;2024-03-29T14:04:17;4.18;;;1.40;;
71753;SDS011;59593;51.716;7.016;2024-03-29T14:06:43;3.00;;;1.20;;
71753;SDS011;59593;51.716;7.016;2024-03-29T14:09:08;2.08;;;1.20;;
71753;SDS011;59593;51.716;7.016;2024-03-29T14:11:34;3.33;;;1.20;;
71753;SDS011;59593;51.716;7.016;2024-03-29T14:13:59;2.28;;;1.20;;
71753;SDS011;59593;51.716;7.016;2024-03-29T14:16:25;2.55;;;1.10;;
71753;SDS011;59593;51.716;7.016;2024-03-29T14:18:51;4.18;;;1.15;;
71753;SDS011;59593;51.716;7.016;2024-03-29T14:21:16;2.25;;;1.10;;
71753;SDS011;59593;51.716;7.016;2024-03-29T14:23:42;2.75;;;1.20;;
71753;SDS011;59593;51.716;7.016;2024-03-29T14:26:08;2.70;;;1.13;;
71753;SDS011;59593;51.716;7.016;2024-03-29T14:28:33;3.10;;;1.10;;
71753;SDS011;59593;51.716;7.016;2024-03-29T14:30:59;3.00;;;1.05;;
71753;SDS011;59593;51.716;7.016;2024-03-29T14:33:24;3.17;;;1.20;;
71753;SDS011;59593;51.716;7.016;2024-03-29T14:35:50;4.85;;;1.30;;
71753;SDS011;59593;51.716;7.016;2024-03-29T14:38:15;3.72;;;1.15;;
71753;SDS011;59593;51.716;7.016;2024-03-29T14:40:41;3.42;;;1.27;;
71753;SDS011;59593;51.716;7.016;2024-03-29T14:43:07;3.35;;;1.20;;
71753;SDS011;59593;51.716;7.016;2024-03-29T14:45:33;2.55;;;1.13;;
71753;SDS011;59593;51.716;7.016;2024-03-29T14:47:59;4.85;;;1.25;;
71753;SDS011;59593;51.716;7.016;2024-03-29T14:50:24;2.85;;;1.25;;